createdAt,value
2023-01-18T00:01:45.683Z,1.02
2023-01-18T00:04:12.003Z,0.98
2023-01-18T00:06:38.252Z,1.09
2023-01-18T00:09:04.501Z,1.30
2023-01-18T00:11:30.757Z,1.32
2023-01-18T00:13:57.042Z,1.38
2023-01-18T00:16:23.317Z,1.29
2023-01-18T00:18:49.583Z,1.37
2023-01-18T00:21:15.842Z,1.33
2023-01-18T00:23:42.105Z,1.40
2023-01-18T00:26:08.356Z,1.49
2023-01-18T00:28:34.614Z,1.61
2023-01-18T00:31:00.875Z,1.46
2023-01-18T00:33:27.118Z,1.54
2023-01-18T00:35:53.369Z,1.64
2023-01-18T00:38:19.644Z,1.54
2023-01-18T00:40:45.932Z,1.63
2023-01-18T00:43:12.187Z,1.56
2023-01-18T00:45:38.518Z,1.50
2023-01-18T00:48:04.795Z,1.38
2023-01-18T00:50:31.063Z,1.74
2023-01-18T00:52:57.970Z,1.42
2023-01-18T00:55:24.420Z,1.47
2023-01-18T00:57:50.668Z,1.35
2023-01-18T01:00:16.927Z,1.46
2023-01-18T01:02:43.276Z,1.46
2023-01-18T01:05:09.557Z,1.45
2023-01-18T01:07:35.823Z,1.52
2023-01-18T01:10:02.142Z,1.59
2023-01-18T01:12:28.419Z,1.69
2023-01-18T01:14:54.672Z,1.60
2023-01-18T01:17:20.931Z,1.66
2023-01-18T01:19:47.171Z,1.53
2023-01-18T01:22:13.432Z,1.73
2023-01-18T01:24:39.714Z,1.65
2023-01-18T01:27:05.979Z,1.80
2023-01-18T01:29:32.255Z,1.84
2023-01-18T01:31:58.527Z,1.78
2023-01-18T01:34:24.811Z,2.05
2023-01-18T01:36:51.085Z,1.92
2023-01-18T01:39:17.398Z,2.10
2023-01-18T01:41:43.667Z,2.10
2023-01-18T01:44:09.916Z,2.00
2023-01-18T01:46:36.213Z,1.99
2023-01-18T01:49:02.479Z,2.10
2023-01-18T01:51:28.743Z,1.77
2023-01-18T01:53:54.981Z,1.88
2023-01-18T01:56:21.240Z,1.94
2023-01-18T01:58:47.508Z,2.02
2023-01-18T02:01:13.879Z,2.16
2023-01-18T02:03:40.191Z,2.30
2023-01-18T02:06:06.485Z,2.19
2023-01-18T02:08:32.726Z,2.31
2023-01-18T02:10:59.002Z,1.92
2023-01-18T02:13:25.285Z,1.93
2023-01-18T02:15:51.554Z,1.75
2023-01-18T02:18:17.801Z,1.71
2023-01-18T02:20:44.076Z,1.47
2023-01-18T02:23:10.369Z,1.34
2023-01-18T02:25:36.658Z,1.17
2023-01-18T02:28:02.916Z,1.29
2023-01-18T02:30:29.176Z,1.10
2023-01-18T02:32:55.912Z,1.08
2023-01-18T02:35:22.341Z,1.11
2023-01-18T02:37:48.581Z,1.26
2023-01-18T02:40:14.856Z,1.42
2023-01-18T02:42:41.116Z,1.23
2023-01-18T02:45:07.377Z,1.28
2023-01-18T02:47:33.631Z,1.19
2023-01-18T02:49:59.891Z,1.49
2023-01-18T02:52:26.195Z,1.43
2023-01-18T02:54:52.437Z,1.28
2023-01-18T02:57:18.739Z,1.27
2023-01-18T02:59:45.009Z,1.07
2023-01-18T03:02:11.385Z,1.19
2023-01-18T03:04:37.712Z,1.34
2023-01-18T03:07:03.964Z,1.13
2023-01-18T03:09:30.216Z,0.92
2023-01-18T03:11:56.479Z,1.28
2023-01-18T03:14:22.725Z,1.20
2023-01-18T03:16:48.968Z,1.26
2023-01-18T03:19:15.219Z,1.06
2023-01-18T03:21:41.471Z,1.06
2023-01-18T03:24:07.721Z,1.10
2023-01-18T03:26:34.024Z,1.20
2023-01-18T03:29:00.281Z,1.22
2023-01-18T03:31:26.569Z,1.35
2023-01-18T03:33:52.816Z,1.28
2023-01-18T03:36:19.054Z,1.13
2023-01-18T03:38:45.281Z,1.31
2023-01-18T03:41:11.528Z,1.38
2023-01-18T03:43:37.842Z,2.61
2023-01-18T03:46:04.151Z,1.75
2023-01-18T03:48:30.444Z,1.55
2023-01-18T03:50:56.717Z,2.10
2023-01-18T03:53:22.981Z,2.18
2023-01-18T03:55:49.235Z,2.95
2023-01-18T03:58:15.505Z,2.77
2023-01-18T04:00:41.779Z,2.20
2023-01-18T04:03:08.115Z,2.21
2023-01-18T04:05:34.371Z,2.72
2023-01-18T04:08:00.617Z,1.79
2023-01-18T04:10:26.877Z,1.48
2023-01-18T04:12:53.191Z,1.59
2023-01-18T04:15:19.446Z,1.54
2023-01-18T04:17:45.688Z,1.61
2023-01-18T04:20:11.948Z,1.65
2023-01-18T04:22:38.234Z,1.61
2023-01-18T04:25:04.495Z,1.55
2023-01-18T04:27:30.763Z,1.63
2023-01-18T04:29:57.037Z,1.51
2023-01-18T04:32:23.304Z,1.53
2023-01-18T04:34:49.551Z,1.91
2023-01-18T04:37:15.793Z,1.89
2023-01-18T04:39:42.086Z,1.98
2023-01-18T04:42:08.362Z,1.84
2023-01-18T04:44:34.631Z,1.91
2023-01-18T04:47:00.908Z,1.99
2023-01-18T04:49:27.186Z,2.10
2023-01-18T04:51:53.462Z,2.06
2023-01-18T04:54:19.708Z,2.19
2023-01-18T04:56:45.968Z,2.26
2023-01-18T04:59:12.218Z,2.25
2023-01-18T05:01:38.565Z,2.19
2023-01-18T05:04:04.852Z,2.17
2023-01-18T05:06:31.105Z,1.98
2023-01-18T05:08:57.376Z,2.12
2023-01-18T05:11:23.637Z,1.88
2023-01-18T05:13:49.895Z,1.77
2023-01-18T05:16:16.251Z,1.61
2023-01-18T05:18:42.533Z,0.98
2023-01-18T05:21:08.787Z,0.65
2023-01-18T05:23:35.050Z,0.60
2023-01-18T05:26:01.294Z,0.55
2023-01-18T05:28:27.567Z,0.41
2023-01-18T05:30:53.804Z,0.52
2023-01-18T05:33:20.055Z,0.37
2023-01-18T05:35:46.312Z,0.33
2023-01-18T05:38:12.573Z,0.34
2023-01-18T05:40:38.828Z,0.37
2023-01-18T05:43:05.094Z,0.32
2023-01-18T05:45:31.374Z,0.28
2023-01-18T05:47:57.653Z,0.19
2023-01-18T05:50:23.907Z,0.37
2023-01-18T05:52:50.133Z,0.39
2023-01-18T05:55:16.400Z,0.21
2023-01-18T05:57:42.864Z,0.31
2023-01-18T06:00:09.156Z,0.49
2023-01-18T06:02:35.409Z,0.61
2023-01-18T06:05:01.652Z,0.51
2023-01-18T06:07:28.033Z,0.50
2023-01-18T06:09:54.283Z,0.49
2023-01-18T06:12:20.549Z,0.56
2023-01-18T06:14:46.880Z,0.49
2023-01-18T06:17:13.201Z,0.55
2023-01-18T06:19:39.466Z,0.58
2023-01-18T06:22:05.728Z,0.65
2023-01-18T06:24:31.991Z,0.64
2023-01-18T06:26:58.267Z,0.44
2023-01-18T06:29:24.532Z,0.56
2023-01-18T06:31:50.859Z,0.81
2023-01-18T06:34:17.160Z,1.14
2023-01-18T06:36:43.435Z,1.09
2023-01-18T06:39:09.703Z,1.16
2023-01-18T06:41:35.988Z,1.31
2023-01-18T06:44:02.264Z,1.33
2023-01-18T06:46:28.516Z,1.48
2023-01-18T06:48:54.755Z,1.22
2023-01-18T06:51:21.020Z,1.11
2023-01-18T06:53:47.329Z,0.91
2023-01-18T06:56:13.599Z,1.04
2023-01-18T06:58:39.867Z,1.01
2023-01-18T07:01:06.220Z,0.84
2023-01-18T07:03:32.591Z,0.83
2023-01-18T07:05:58.848Z,0.96
2023-01-18T07:08:25.127Z,0.96
2023-01-18T07:10:51.397Z,1.00
2023-01-18T07:13:17.667Z,0.96
2023-01-18T07:15:43.922Z,1.24
2023-01-18T07:18:10.236Z,1.21
2023-01-18T07:20:36.499Z,1.30
2023-01-18T07:23:02.772Z,1.26
2023-01-18T07:25:29.029Z,1.34
2023-01-18T07:27:55.272Z,1.19
2023-01-18T07:30:21.524Z,1.32
2023-01-18T07:32:47.807Z,1.40
2023-01-18T07:35:14.092Z,1.34
2023-01-18T07:37:40.344Z,1.46
2023-01-18T07:40:06.645Z,2.04
2023-01-18T07:42:32.932Z,4.23
2023-01-18T07:44:59.211Z,7.84
2023-01-18T07:47:25.491Z,5.58
2023-01-18T07:49:51.779Z,3.77
2023-01-18T07:52:18.040Z,2.82
2023-01-18T07:54:44.290Z,2.61
2023-01-18T07:57:10.561Z,2.70
2023-01-18T07:59:36.837Z,2.45
2023-01-18T08:02:03.176Z,2.20
2023-01-18T08:04:29.454Z,2.03
2023-01-18T08:06:55.698Z,1.75
2023-01-18T08:09:22.016Z,1.94
2023-01-18T08:11:48.306Z,1.91
2023-01-18T08:14:14.568Z,2.11
2023-01-18T08:16:40.830Z,1.89
2023-01-18T08:19:07.087Z,1.98
2023-01-18T08:21:33.342Z,1.77
2023-01-18T08:23:59.644Z,1.81
2023-01-18T08:26:25.919Z,1.83
2023-01-18T08:28:52.186Z,1.73
2023-01-18T08:31:18.504Z,1.61
2023-01-18T08:33:44.794Z,1.74
2023-01-18T08:36:11.045Z,1.63
2023-01-18T08:38:37.334Z,1.77
2023-01-18T08:41:03.582Z,1.68
2023-01-18T08:43:29.821Z,1.97
2023-01-18T08:45:56.092Z,1.76
2023-01-18T08:48:22.385Z,1.75
2023-01-18T08:50:50.821Z,2.04
2023-01-18T08:53:17.935Z,1.81
2023-01-18T08:55:44.216Z,1.86
2023-01-18T08:58:10.488Z,1.66
2023-01-18T09:00:36.911Z,1.92
2023-01-18T09:03:03.821Z,2.66
2023-01-18T09:05:30.258Z,2.99
2023-01-18T09:07:56.509Z,2.65
2023-01-18T09:10:22.775Z,1.92
2023-01-18T09:12:49.127Z,1.56
2023-01-18T09:15:15.376Z,1.68
2023-01-18T09:17:41.659Z,1.60
2023-01-18T09:20:07.929Z,2.14
2023-01-18T09:22:34.205Z,1.92
2023-01-18T09:25:00.525Z,1.23
2023-01-18T09:27:26.794Z,2.25
2023-01-18T09:29:53.058Z,1.83
2023-01-18T09:32:19.305Z,1.24
2023-01-18T09:34:45.561Z,1.26
2023-01-18T09:37:11.809Z,1.57
2023-01-18T09:39:51.041Z,1.88
2023-01-18T09:42:17.922Z,1.54
2023-01-18T09:44:44.248Z,1.35
2023-01-18T09:47:10.508Z,1.70
2023-01-18T09:49:36.779Z,1.41
2023-01-18T09:52:03.061Z,1.53
2023-01-18T09:54:29.321Z,1.60
2023-01-18T09:56:55.599Z,1.46
2023-01-18T09:59:21.853Z,1.14
2023-01-18T10:01:48.198Z,1.03
2023-01-18T10:04:14.579Z,1.02
2023-01-18T10:06:40.847Z,1.21
2023-01-18T10:09:07.216Z,1.13
2023-01-18T10:11:33.486Z,1.11
2023-01-18T10:13:59.756Z,1.03
2023-01-18T10:16:26.113Z,0.96
2023-01-18T10:18:52.547Z,1.00
2023-01-18T10:21:18.819Z,1.08
2023-01-18T10:23:45.085Z,1.11
2023-01-18T10:26:11.369Z,0.83
2023-01-18T10:28:37.661Z,0.69
2023-01-18T10:31:03.967Z,0.74
2023-01-18T10:33:30.274Z,0.90
2023-01-18T10:35:56.788Z,0.98
2023-01-18T10:38:23.072Z,1.11
2023-01-18T10:40:49.517Z,1.21
2023-01-18T10:43:15.807Z,1.40
2023-01-18T10:45:42.176Z,1.79
2023-01-18T10:48:08.475Z,1.54
2023-01-18T10:50:34.760Z,1.04
2023-01-18T10:53:01.441Z,1.36
2023-01-18T10:55:27.882Z,1.79
2023-01-18T10:57:54.138Z,1.66
2023-01-18T11:00:20.406Z,1.64
2023-01-18T11:02:46.707Z,1.41
2023-01-18T11:05:13.004Z,1.31
2023-01-18T11:07:39.249Z,1.08
2023-01-18T11:10:05.556Z,1.00
2023-01-18T11:12:31.836Z,1.08
2023-01-18T11:14:58.099Z,1.12
2023-01-18T11:17:24.367Z,1.30
2023-01-18T11:19:50.621Z,1.39
2023-01-18T11:22:16.910Z,1.70
2023-01-18T11:24:43.215Z,1.51
2023-01-18T11:27:09.481Z,1.90
2023-01-18T11:29:35.728Z,1.89
2023-01-18T11:32:02.033Z,1.68
2023-01-18T11:34:28.347Z,1.68
2023-01-18T11:36:54.588Z,1.87
2023-01-18T11:39:20.855Z,1.99
2023-01-18T11:41:47.113Z,1.60
2023-01-18T11:44:13.438Z,1.38
2023-01-18T11:46:39.706Z,1.62
2023-01-18T11:49:05.969Z,1.68
2023-01-18T11:51:32.237Z,1.91
2023-01-18T11:53:58.510Z,2.07
2023-01-18T11:56:24.864Z,2.29
2023-01-18T11:58:51.101Z,1.77
2023-01-18T12:01:17.459Z,1.91
2023-01-18T12:03:43.766Z,2.28
2023-01-18T12:06:10.023Z,2.42
2023-01-18T12:08:36.295Z,2.16
2023-01-18T12:11:02.599Z,2.27
2023-01-18T12:13:28.940Z,2.36
2023-01-18T12:15:55.180Z,2.61
2023-01-18T12:18:21.423Z,2.65
2023-01-18T12:20:47.663Z,2.86
2023-01-18T12:23:13.921Z,3.00
2023-01-18T12:25:40.196Z,2.94
2023-01-18T12:28:06.518Z,3.08
2023-01-18T12:30:32.806Z,3.51
2023-01-18T12:32:59.434Z,3.43
2023-01-18T12:35:25.863Z,3.58
2023-01-18T12:37:52.116Z,3.72
2023-01-18T12:40:18.383Z,3.57
2023-01-18T12:42:44.641Z,3.80
2023-01-18T12:45:10.920Z,3.61
2023-01-18T12:47:37.217Z,4.03
2023-01-18T12:50:03.488Z,4.20
2023-01-18T12:52:29.750Z,4.25
2023-01-18T12:54:56.035Z,3.93
2023-01-18T12:57:22.310Z,3.93
2023-01-18T12:59:48.580Z,3.43
2023-01-18T13:02:14.843Z,3.24
2023-01-18T13:04:41.152Z,3.18
2023-01-18T13:07:07.450Z,3.57
2023-01-18T13:09:33.704Z,3.73
2023-01-18T13:11:59.966Z,4.05
2023-01-18T13:14:26.215Z,4.60
2023-01-18T13:16:52.533Z,4.69
2023-01-18T13:19:18.839Z,5.01
2023-01-18T13:21:45.101Z,5.60
2023-01-18T13:24:11.467Z,6.06
2023-01-18T13:26:37.718Z,6.33
2023-01-18T13:29:03.984Z,5.89
2023-01-18T13:31:30.308Z,5.54
2023-01-18T13:33:56.625Z,5.09
2023-01-18T13:36:22.867Z,5.24
2023-01-18T13:38:49.317Z,5.46
2023-01-18T13:41:15.565Z,5.83
2023-01-18T13:43:41.850Z,5.88
2023-01-18T13:46:08.222Z,7.41
2023-01-18T13:48:34.562Z,8.23
2023-01-18T13:51:00.844Z,7.07
2023-01-18T13:53:27.127Z,6.65
2023-01-18T13:55:53.424Z,6.26
2023-01-18T13:58:19.694Z,6.40
2023-01-18T14:00:46.500Z,6.27
2023-01-18T14:03:13.322Z,6.42
2023-01-18T14:05:39.594Z,6.30
2023-01-18T14:08:05.889Z,6.09
2023-01-18T14:10:33.215Z,6.03
2023-01-18T14:12:59.972Z,6.11
2023-01-18T14:15:26.566Z,5.73
2023-01-18T14:17:58.604Z,5.67
2023-01-18T14:20:25.439Z,5.69
2023-01-18T14:22:51.737Z,5.73
2023-01-18T14:25:17.986Z,5.85
2023-01-18T14:27:44.349Z,6.02
2023-01-18T14:30:10.656Z,5.89
2023-01-18T14:32:36.922Z,5.94
2023-01-18T14:35:03.289Z,6.77
2023-01-18T14:37:29.579Z,6.60
2023-01-18T14:39:55.880Z,7.17
2023-01-18T14:42:22.142Z,7.05
2023-01-18T14:44:57.839Z,6.71
2023-01-18T14:47:25.182Z,6.75
2023-01-18T14:49:51.459Z,6.67
2023-01-18T14:52:17.726Z,7.28
2023-01-18T14:54:44.008Z,7.11
2023-01-18T14:57:10.245Z,7.54
2023-01-18T14:59:36.561Z,6.83
2023-01-18T15:02:02.914Z,6.71
2023-01-18T15:04:29.291Z,6.85
2023-01-18T15:06:55.594Z,6.77
2023-01-18T15:09:21.907Z,7.54
2023-01-18T15:11:48.167Z,7.06
2023-01-18T15:14:14.479Z,7.18
2023-01-18T15:16:40.743Z,7.15
2023-01-18T15:19:07.080Z,7.27
2023-01-18T15:21:33.347Z,7.63
2023-01-18T15:23:59.626Z,7.76
2023-01-18T15:26:25.877Z,8.10
2023-01-18T15:28:52.247Z,8.08
2023-01-18T15:31:18.550Z,8.37
2023-01-18T15:33:44.894Z,8.23
2023-01-18T15:36:11.209Z,8.56
2023-01-18T15:38:37.501Z,9.14
2023-01-18T15:41:03.810Z,8.92
2023-01-18T15:43:30.108Z,9.19
2023-01-18T15:45:56.465Z,9.07
2023-01-18T15:48:23.307Z,8.94
2023-01-18T15:50:49.617Z,9.07
2023-01-18T15:53:15.906Z,8.50
2023-01-18T15:55:42.151Z,8.85
2023-01-18T15:58:08.460Z,8.80
2023-01-18T16:00:34.732Z,8.26
2023-01-18T16:03:02.998Z,8.44
2023-01-18T16:05:29.999Z,8.74
2023-01-18T16:08:09.435Z,8.86
2023-01-18T16:10:41.904Z,8.66
2023-01-18T16:13:08.212Z,8.39
2023-01-18T16:15:34.452Z,8.62
2023-01-18T16:18:01.097Z,8.84
2023-01-18T16:20:27.598Z,8.31
2023-01-18T16:22:53.845Z,8.78
2023-01-18T16:25:20.154Z,9.00
2023-01-18T16:27:46.413Z,9.08
2023-01-18T16:30:12.716Z,8.66
2023-01-18T16:32:39.003Z,9.05
2023-01-18T16:35:05.260Z,9.84
2023-01-18T16:37:31.568Z,10.13
2023-01-18T16:39:57.875Z,9.39
2023-01-18T16:42:36.891Z,8.61
2023-01-18T16:45:04.119Z,9.73
2023-01-18T16:47:30.415Z,9.50
2023-01-18T16:49:56.855Z,10.02
2023-01-18T16:52:23.092Z,10.07
2023-01-18T16:54:49.409Z,10.47
2023-01-18T16:57:15.683Z,10.11
2023-01-18T16:59:41.928Z,10.73
2023-01-18T17:02:08.367Z,11.40
2023-01-18T17:04:34.766Z,10.22
2023-01-18T17:07:01.071Z,10.19
2023-01-18T17:09:28.070Z,9.97
2023-01-18T17:11:56.923Z,9.26
2023-01-18T17:14:23.307Z,8.85
2023-01-18T17:16:49.629Z,8.84
2023-01-18T17:19:15.916Z,8.51
2023-01-18T17:21:42.205Z,8.71
2023-01-18T17:24:08.481Z,9.22
2023-01-18T17:26:34.774Z,9.43
2023-01-18T17:29:01.154Z,8.71
2023-01-18T17:31:27.449Z,8.51
2023-01-18T17:33:53.727Z,8.86
2023-01-18T17:36:19.973Z,9.28
2023-01-18T17:38:46.262Z,8.90
2023-01-18T17:41:16.630Z,8.98
2023-01-18T17:43:45.644Z,9.85
2023-01-18T17:46:11.998Z,10.16
2023-01-18T17:48:38.270Z,10.58
2023-01-18T17:51:04.529Z,11.03
2023-01-18T17:53:30.815Z,10.65
2023-01-18T17:55:57.245Z,9.63
2023-01-18T17:58:23.588Z,8.73
2023-01-18T18:00:49.916Z,9.12
2023-01-18T18:03:16.362Z,9.78
2023-01-18T18:05:42.911Z,10.26
2023-01-18T18:08:09.173Z,10.95
2023-01-18T18:10:35.439Z,11.02
2023-01-18T18:13:02.211Z,10.41
2023-01-18T18:15:28.686Z,10.66
2023-01-18T18:17:54.951Z,10.14
2023-01-18T18:20:22.220Z,9.82
2023-01-18T18:22:49.154Z,9.65
2023-01-18T18:25:15.538Z,9.80
2023-01-18T18:27:46.176Z,9.37
2023-01-18T18:30:13.294Z,8.80
2023-01-18T18:32:39.610Z,8.93
2023-01-18T18:35:14.847Z,8.96
2023-01-18T18:37:49.736Z,9.12
2023-01-18T18:40:16.146Z,9.01
2023-01-18T18:42:45.260Z,9.12
2023-01-18T18:45:16.060Z,8.57
2023-01-18T18:47:42.343Z,8.78
2023-01-18T18:50:09.936Z,9.02
2023-01-18T18:52:36.220Z,9.14
2023-01-18T18:55:02.518Z,8.32
2023-01-18T18:57:28.803Z,8.41
2023-01-18T18:59:55.053Z,8.61
2023-01-18T19:02:21.416Z,8.29
2023-01-18T19:04:47.679Z,8.28
2023-01-18T19:07:13.933Z,8.71
2023-01-18T19:09:40.228Z,10.29
2023-01-18T19:12:06.479Z,8.55
2023-01-18T19:14:32.750Z,8.04
2023-01-18T19:16:59.037Z,8.18
2023-01-18T19:19:25.930Z,11.04
2023-01-18T19:21:52.274Z,11.66
2023-01-18T19:24:18.614Z,10.32
2023-01-18T19:26:44.909Z,9.72
2023-01-18T19:29:11.184Z,8.41
2023-01-18T19:31:37.558Z,7.16
2023-01-18T19:34:03.914Z,7.53
2023-01-18T19:36:30.212Z,6.57
2023-01-18T19:38:59.772Z,6.66
2023-01-18T19:41:26.533Z,6.75
2023-01-18T19:43:52.878Z,6.84
2023-01-18T19:46:19.148Z,6.96
2023-01-18T19:48:45.450Z,6.90
2023-01-18T19:51:21.134Z,7.18
2023-01-18T19:53:48.258Z,7.40
2023-01-18T19:56:14.536Z,7.37
2023-01-18T19:58:40.802Z,7.21
2023-01-18T20:01:07.150Z,7.49
2023-01-18T20:03:33.839Z,8.26
2023-01-18T20:06:00.648Z,8.83
2023-01-18T20:08:26.914Z,9.62
2023-01-18T20:10:53.188Z,11.20
2023-01-18T20:13:19.466Z,11.43
2023-01-18T20:15:45.753Z,11.08
2023-01-18T20:18:12.073Z,11.05
2023-01-18T20:20:38.341Z,11.34
2023-01-18T20:23:04.604Z,10.89
2023-01-18T20:25:30.854Z,10.98
2023-01-18T20:27:57.140Z,11.70
2023-01-18T20:30:23.388Z,11.54
2023-01-18T20:32:49.643Z,11.73
2023-01-18T20:35:15.940Z,11.36
2023-01-18T20:37:42.417Z,11.87
2023-01-18T20:40:08.682Z,11.47
2023-01-18T20:42:36.130Z,10.96
2023-01-18T20:45:02.377Z,10.62
2023-01-18T20:47:28.652Z,11.01
2023-01-18T20:49:54.953Z,11.41
2023-01-18T20:52:21.287Z,10.70
2023-01-18T20:54:47.546Z,10.75
2023-01-18T20:57:13.847Z,10.06
2023-01-18T20:59:40.110Z,10.20
2023-01-18T21:02:06.509Z,10.00
2023-01-18T21:04:32.961Z,9.98
2023-01-18T21:06:59.256Z,9.95
2023-01-18T21:09:25.562Z,10.28
2023-01-18T21:11:51.822Z,9.92
2023-01-18T21:14:18.074Z,10.16
2023-01-18T21:16:44.343Z,10.55
2023-01-18T21:19:10.618Z,10.67
2023-01-18T21:21:36.886Z,11.39
2023-01-18T21:24:03.167Z,10.74
2023-01-18T21:26:29.434Z,11.38
2023-01-18T21:28:55.701Z,10.58
2023-01-18T21:31:22.019Z,10.24
2023-01-18T21:33:48.369Z,10.67
2023-01-18T21:36:14.659Z,10.77
2023-01-18T21:38:40.996Z,10.55
2023-01-18T21:41:07.294Z,10.46
2023-01-18T21:43:33.561Z,10.58
2023-01-18T21:45:59.855Z,10.53
2023-01-18T21:48:26.164Z,11.00
2023-01-18T21:50:52.434Z,10.93
2023-01-18T21:53:18.702Z,10.90
2023-01-18T21:55:45.076Z,10.76
2023-01-18T21:58:11.337Z,10.39
2023-01-18T22:00:37.619Z,10.77
2023-01-18T22:03:03.936Z,9.59
2023-01-18T22:05:30.255Z,10.06
2023-01-18T22:07:56.573Z,9.99
2023-01-18T22:10:22.919Z,9.62
2023-01-18T22:12:49.209Z,9.85
2023-01-18T22:15:15.484Z,9.88
2023-01-18T22:17:41.744Z,9.69
2023-01-18T22:20:08.000Z,9.49
2023-01-18T22:22:34.272Z,9.47
2023-01-18T22:25:00.536Z,9.09
2023-01-18T22:27:26.781Z,9.49
2023-01-18T22:29:53.079Z,9.05
2023-01-18T22:32:19.381Z,9.24
2023-01-18T22:34:45.671Z,9.39
2023-01-18T22:37:11.941Z,9.89
2023-01-18T22:39:38.222Z,10.19
2023-01-18T22:42:04.509Z,9.99
2023-01-18T22:44:30.766Z,9.40
2023-01-18T22:46:57.039Z,9.91
2023-01-18T22:49:23.325Z,9.72
2023-01-18T22:51:49.617Z,9.70
2023-01-18T22:54:15.934Z,9.85
2023-01-18T22:56:42.245Z,9.95
2023-01-18T22:59:08.488Z,9.71
2023-01-18T23:01:34.737Z,9.93
2023-01-18T23:04:01.014Z,8.97
2023-01-18T23:06:27.279Z,9.08
2023-01-18T23:08:53.556Z,8.79
2023-01-18T23:11:19.826Z,8.82
2023-01-18T23:13:46.152Z,8.16
2023-01-18T23:16:12.474Z,8.13
2023-01-18T23:18:38.773Z,8.14
2023-01-18T23:21:05.047Z,7.95
2023-01-18T23:23:31.388Z,8.27
2023-01-18T23:25:57.657Z,8.51
2023-01-18T23:28:23.925Z,8.89
2023-01-18T23:30:50.250Z,9.86
2023-01-18T23:33:16.543Z,9.26
2023-01-18T23:35:42.820Z,9.53
2023-01-18T23:38:09.063Z,8.90
2023-01-18T23:40:35.358Z,8.22
2023-01-18T23:43:01.603Z,8.49
2023-01-18T23:45:29.013Z,8.79
2023-01-18T23:47:55.423Z,8.32
2023-01-18T23:50:21.685Z,8.32
2023-01-18T23:52:47.948Z,9.09
2023-01-18T23:55:14.213Z,9.98
2023-01-18T23:57:40.468Z,10.01
